createdAt,value
2023-10-12T00:02:22.997Z,5.68
2023-10-12T00:05:01.976Z,5.65
2023-10-12T00:07:35.933Z,4.95
2023-10-12T00:10:10.862Z,5.45
2023-10-12T00:12:42.939Z,4.78
2023-10-12T00:15:24.806Z,4.90
2023-10-12T00:17:53.868Z,5.68
2023-10-12T00:20:27.495Z,5.30
2023-10-12T00:22:54.272Z,4.47
2023-10-12T00:25:24.203Z,4.80
2023-10-12T00:27:52.395Z,4.97
2023-10-12T00:30:19.303Z,4.95
2023-10-12T00:32:46.112Z,4.63
2023-10-12T00:35:14.991Z,5.55
2023-10-12T00:37:45.051Z,5.28
2023-10-12T00:40:32.614Z,5.25
2023-10-12T00:43:01.498Z,5.20
2023-10-12T00:45:32.818Z,4.93
2023-10-12T00:48:08.613Z,5.10
2023-10-12T00:50:37.671Z,4.90
2023-10-12T00:53:16.389Z,4.63
2023-10-12T00:55:44.526Z,4.25
2023-10-12T00:58:11.538Z,4.90
2023-10-12T01:00:46.599Z,5.25
2023-10-12T01:03:28.482Z,4.55
2023-10-12T01:06:16.372Z,5.30
2023-10-12T01:08:44.707Z,4.40
2023-10-12T01:11:22.834Z,5.10
2023-10-12T01:14:02.177Z,4.68
2023-10-12T01:16:58.697Z,4.80
2023-10-12T01:19:32.782Z,4.53
2023-10-12T01:22:14.024Z,4.15
2023-10-12T01:25:01.856Z,4.55
2023-10-12T01:27:29.056Z,4.80
2023-10-12T01:30:13.123Z,5.13
2023-10-12T01:32:39.939Z,4.88
2023-10-12T01:35:07.831Z,4.40
2023-10-12T01:37:48.863Z,5.13
2023-10-12T01:40:19.396Z,4.75
2023-10-12T01:42:48.844Z,4.40
2023-10-12T01:45:25.811Z,4.88
2023-10-12T01:47:57.029Z,5.85
2023-10-12T01:50:28.725Z,4.95
2023-10-12T01:52:59.902Z,4.80
2023-10-12T01:55:30.912Z,4.68
2023-10-12T01:58:01.231Z,4.83
2023-10-12T02:00:44.035Z,4.47
2023-10-12T02:03:20.075Z,5.10
2023-10-12T02:06:03.132Z,4.72
2023-10-12T02:08:35.251Z,4.60
2023-10-12T02:11:09.184Z,4.32
2023-10-12T02:13:36.282Z,5.00
2023-10-12T02:16:08.681Z,5.40
2023-10-12T02:18:36.570Z,4.97
2023-10-12T02:21:12.504Z,5.10
2023-10-12T02:23:55.273Z,5.30
2023-10-12T02:26:36.104Z,4.35
2023-10-12T02:29:10.692Z,5.40
2023-10-12T02:31:51.313Z,5.05
2023-10-12T02:34:30.830Z,5.03
2023-10-12T02:37:09.179Z,4.53
2023-10-12T02:39:42.518Z,5.35
2023-10-12T02:42:17.903Z,5.07
2023-10-12T02:44:58.657Z,5.47
2023-10-12T02:47:31.524Z,5.43
2023-10-12T02:50:16.440Z,5.13
2023-10-12T02:52:46.012Z,5.25
2023-10-12T02:55:25.185Z,4.70
2023-10-12T02:58:08.183Z,4.65
2023-10-12T03:00:41.416Z,5.55
2023-10-12T03:03:23.594Z,5.80
2023-10-12T03:05:53.292Z,4.95
2023-10-12T03:08:21.664Z,5.55
2023-10-12T03:11:22.143Z,5.15
2023-10-12T03:14:01.134Z,4.78
2023-10-12T03:16:42.674Z,5.75
2023-10-12T03:19:23.907Z,5.78
2023-10-12T03:21:52.766Z,5.22
2023-10-12T03:24:22.985Z,5.13
2023-10-12T03:26:57.220Z,6.40
2023-10-12T03:29:27.200Z,5.53
2023-10-12T03:31:55.169Z,5.47
2023-10-12T03:34:33.947Z,6.55
2023-10-12T03:37:00.967Z,5.80
2023-10-12T03:39:29.140Z,6.07
2023-10-12T03:41:57.000Z,6.15
2023-10-12T03:44:37.232Z,5.72
2023-10-12T03:47:23.180Z,7.10
2023-10-12T03:49:55.322Z,6.22
2023-10-12T03:52:28.720Z,6.57
2023-10-12T03:55:02.416Z,5.85
2023-10-12T03:57:36.337Z,5.93
2023-10-12T04:00:07.669Z,6.57
2023-10-12T04:02:43.308Z,6.68
2023-10-12T04:05:22.335Z,6.18
2023-10-12T04:07:52.251Z,6.55
2023-10-12T04:10:37.999Z,6.82
2023-10-12T04:13:25.038Z,6.90
2023-10-12T04:16:06.820Z,6.90
2023-10-12T04:18:34.464Z,7.55
2023-10-12T04:21:03.504Z,6.72
2023-10-12T04:24:05.561Z,8.30
2023-10-12T04:26:34.890Z,8.38
2023-10-12T04:29:02.021Z,7.95
2023-10-12T04:31:37.639Z,8.52
2023-10-12T04:34:04.688Z,8.43
2023-10-12T04:36:45.824Z,8.77
2023-10-12T04:39:26.504Z,9.50
2023-10-12T04:41:59.450Z,9.25
2023-10-12T04:44:26.599Z,8.85
2023-10-12T04:47:00.704Z,8.68
2023-10-12T04:49:48.913Z,9.05
2023-10-12T04:52:15.625Z,8.13
2023-10-12T04:55:01.173Z,9.30
2023-10-12T04:57:29.272Z,8.32
2023-10-12T05:00:08.942Z,9.60
2023-10-12T05:02:50.695Z,9.35
2023-10-12T05:05:23.947Z,8.98
2023-10-12T05:07:58.920Z,8.88
2023-10-12T05:10:39.006Z,9.27
2023-10-12T05:13:07.272Z,9.32
2023-10-12T05:16:03.314Z,9.65
2023-10-12T05:18:30.012Z,10.20
2023-10-12T05:20:56.657Z,10.50
2023-10-12T05:23:23.366Z,10.95
2023-10-12T05:26:09.270Z,10.95
2023-10-12T05:28:39.097Z,10.43
2023-10-12T05:31:09.197Z,10.63
2023-10-12T05:33:39.708Z,10.18
2023-10-12T05:36:10.797Z,10.07
2023-10-12T05:38:38.403Z,8.90
2023-10-12T05:41:09.734Z,10.43
2023-10-12T05:43:43.007Z,9.43
2023-10-12T05:46:16.640Z,10.88
2023-10-12T05:48:48.043Z,10.15
2023-10-12T05:51:20.040Z,10.80
2023-10-12T05:53:47.252Z,11.27
2023-10-12T05:56:13.912Z,12.07
2023-10-12T05:58:42.099Z,12.98
2023-10-12T06:01:19.155Z,13.32
2023-10-12T06:03:57.760Z,13.23
2023-10-12T06:06:24.830Z,13.85
2023-10-12T06:08:54.540Z,15.38
2023-10-12T06:11:27.807Z,14.80
2023-10-12T06:13:54.843Z,14.98
2023-10-12T06:16:22.700Z,15.02
2023-10-12T06:18:50.900Z,15.02
2023-10-12T06:21:20.643Z,15.02
2023-10-12T06:23:52.056Z,15.18
2023-10-12T06:26:30.064Z,15.25
2023-10-12T06:29:00.585Z,14.73
2023-10-12T06:31:31.032Z,16.23
2023-10-12T06:34:05.662Z,14.77
2023-10-12T06:36:38.676Z,14.10
2023-10-12T06:39:18.415Z,13.73
2023-10-12T06:41:46.477Z,14.73
2023-10-12T06:44:29.349Z,13.18
2023-10-12T06:47:03.709Z,13.35
2023-10-12T06:49:30.675Z,13.65
2023-10-12T06:52:03.496Z,13.65
2023-10-12T06:54:40.452Z,12.95
2023-10-12T06:57:17.816Z,12.55
2023-10-12T07:00:18.544Z,13.10
2023-10-12T07:02:47.319Z,12.27
2023-10-12T07:05:20.933Z,13.18
2023-10-12T07:07:52.456Z,12.43
2023-10-12T07:10:45.602Z,13.07
2023-10-12T07:13:12.327Z,12.23
2023-10-12T07:15:41.885Z,12.32
2023-10-12T07:18:14.751Z,11.55
2023-10-12T07:20:41.408Z,12.13
2023-10-12T07:23:16.320Z,11.57
2023-10-12T07:25:52.824Z,11.85
2023-10-12T07:28:27.153Z,10.55
2023-10-12T07:31:12.754Z,10.63
2023-10-12T07:33:52.450Z,10.13
2023-10-12T07:36:19.301Z,10.55
2023-10-12T07:38:48.079Z,10.23
2023-10-12T07:41:14.883Z,10.30
2023-10-12T07:43:42.393Z,9.30
2023-10-12T07:46:15.869Z,9.30
2023-10-12T07:48:45.735Z,9.23
2023-10-12T07:51:25.792Z,9.65
2023-10-12T07:54:01.382Z,10.10
2023-10-12T07:56:41.565Z,9.25
2023-10-12T07:59:15.484Z,9.55
2023-10-12T08:01:48.543Z,8.80
2023-10-12T08:04:30.542Z,9.20
2023-10-12T08:06:58.969Z,9.20
2023-10-12T08:09:28.437Z,9.27
2023-10-12T08:11:55.471Z,3.20
2023-10-12T08:14:25.591Z,2.10
2023-10-12T08:17:31.750Z,1.92
2023-10-12T08:20:18.355Z,2.05
2023-10-12T08:22:47.427Z,1.70
2023-10-12T08:25:17.314Z,1.70
2023-10-12T08:28:07.257Z,1.58
2023-10-12T08:30:49.982Z,2.05
2023-10-12T08:33:17.076Z,2.13
2023-10-12T08:36:02.656Z,2.08
2023-10-12T08:38:37.772Z,2.13
2023-10-12T08:41:22.144Z,2.30
2023-10-12T08:43:53.961Z,2.15
2023-10-12T08:46:39.459Z,2.33
2023-10-12T08:49:25.216Z,2.25
2023-10-12T08:52:08.918Z,2.30
2023-10-12T08:54:40.112Z,2.65
2023-10-12T08:57:17.697Z,2.20
2023-10-12T09:00:10.092Z,2.75
2023-10-12T09:02:40.476Z,2.60
2023-10-12T09:05:12.316Z,2.50
2023-10-12T09:07:46.877Z,2.15
2023-10-12T09:10:32.399Z,2.08
2023-10-12T09:12:59.364Z,2.45
2023-10-12T09:15:40.694Z,3.10
2023-10-12T09:18:10.985Z,2.57
2023-10-12T09:20:41.999Z,3.10
2023-10-12T09:23:18.802Z,2.88
2023-10-12T09:26:14.918Z,2.25
2023-10-12T09:28:49.220Z,2.88
2023-10-12T09:31:36.569Z,2.30
2023-10-12T09:34:11.919Z,2.58
2023-10-12T09:36:40.373Z,2.63
2023-10-12T09:39:13.226Z,2.58
2023-10-12T09:41:41.510Z,2.53
2023-10-12T09:44:13.149Z,2.53
2023-10-12T09:46:47.957Z,2.65
2023-10-12T09:49:28.474Z,2.95
2023-10-12T09:51:58.191Z,2.38
2023-10-12T09:54:33.080Z,2.47
2023-10-12T09:57:04.569Z,2.75
2023-10-12T09:59:32.902Z,2.60
2023-10-12T10:02:04.045Z,2.78
2023-10-12T10:04:36.641Z,2.60
2023-10-12T10:07:26.856Z,3.22
2023-10-12T10:10:01.598Z,2.67
2023-10-12T10:12:28.966Z,2.45
2023-10-12T10:15:15.333Z,2.97
2023-10-12T10:17:49.320Z,3.45
2023-10-12T10:20:25.160Z,3.15
2023-10-12T10:23:00.178Z,2.40
2023-10-12T10:25:36.178Z,2.53
2023-10-12T10:28:11.618Z,2.45
2023-10-12T10:30:43.105Z,3.47
2023-10-12T10:33:14.318Z,3.15
2023-10-12T10:36:02.600Z,3.13
2023-10-12T10:38:34.032Z,2.50
2023-10-12T10:41:19.089Z,2.55
2023-10-12T10:43:47.350Z,2.83
2023-10-12T10:46:18.116Z,3.15
2023-10-12T10:51:29.499Z,2.92
2023-10-12T10:53:59.912Z,2.92
2023-10-12T10:56:37.845Z,3.13
2023-10-12T10:59:08.486Z,2.72
2023-10-12T11:01:35.644Z,3.15
2023-10-12T11:04:02.962Z,2.75
2023-10-12T11:06:30.142Z,2.85
2023-10-12T11:09:09.938Z,3.05
2023-10-12T11:11:46.264Z,3.00
2023-10-12T11:14:17.625Z,2.45
2023-10-12T11:16:47.356Z,3.00
2023-10-12T11:19:14.659Z,3.45
2023-10-12T11:21:53.586Z,3.45
2023-10-12T11:24:25.641Z,2.72
2023-10-12T11:26:56.024Z,2.53
2023-10-12T11:29:26.101Z,2.47
2023-10-12T11:32:10.548Z,2.92
2023-10-12T11:34:43.243Z,3.30
2023-10-12T11:37:10.048Z,2.90
2023-10-12T11:39:48.288Z,2.28
2023-10-12T11:42:15.641Z,3.05
2023-10-12T11:44:44.157Z,2.53
2023-10-12T11:47:26.010Z,2.55
2023-10-12T11:49:58.675Z,2.63
2023-10-12T11:52:34.499Z,2.67
2023-10-12T11:55:08.786Z,2.47
2023-10-12T11:57:39.066Z,2.65
2023-10-12T12:00:25.047Z,2.45
2023-10-12T12:03:02.179Z,3.05
2023-10-12T12:05:31.958Z,2.45
2023-10-12T12:08:00.435Z,2.72
2023-10-12T12:10:46.606Z,2.58
2023-10-12T12:13:16.712Z,3.00
2023-10-12T12:15:44.866Z,3.15
2023-10-12T12:18:18.915Z,2.72
2023-10-12T12:20:46.159Z,2.75
2023-10-12T12:23:13.064Z,3.00
2023-10-12T12:25:40.933Z,3.20
2023-10-12T12:28:09.424Z,3.28
2023-10-12T12:33:10.481Z,2.85
2023-10-12T12:35:40.443Z,2.78
2023-10-12T12:38:28.812Z,2.67
2023-10-12T12:40:56.397Z,3.13
2023-10-12T12:43:23.442Z,2.50
2023-10-12T12:45:50.354Z,2.90
2023-10-12T12:48:17.010Z,2.72
2023-10-12T12:50:46.410Z,3.20
2023-10-12T12:53:13.089Z,3.13
2023-10-12T12:55:39.998Z,2.75
2023-10-12T12:58:07.700Z,2.95
2023-10-12T13:00:34.968Z,3.15
2023-10-12T13:03:02.035Z,2.85
2023-10-12T13:05:31.935Z,2.70
2023-10-12T13:07:58.630Z,2.95
2023-10-12T13:10:27.180Z,3.15
2023-10-12T13:12:54.780Z,3.00
2023-10-12T13:15:22.888Z,2.92
2023-10-12T13:17:49.692Z,3.00
2023-10-12T13:20:23.112Z,2.85
2023-10-12T13:22:50.669Z,2.92
2023-10-12T13:25:20.626Z,2.90
2023-10-12T13:27:50.585Z,3.15
2023-10-12T13:30:17.473Z,3.03
2023-10-12T13:32:44.651Z,3.10
2023-10-12T13:35:32.691Z,2.78
2023-10-12T13:38:07.975Z,3.00
2023-10-12T13:40:38.028Z,2.75
2023-10-12T13:43:16.224Z,3.13
2023-10-12T13:45:50.961Z,3.05
2023-10-12T13:48:28.860Z,3.13
2023-10-12T13:51:10.193Z,2.88
2023-10-12T13:53:41.013Z,3.07
2023-10-12T13:56:10.267Z,4.10
2023-10-12T13:58:37.637Z,2.75
2023-10-12T14:01:05.852Z,2.90
2023-10-12T14:03:36.510Z,3.13
2023-10-12T14:06:07.999Z,3.10
2023-10-12T14:08:41.837Z,2.92
2023-10-12T14:11:14.605Z,2.95
2023-10-12T14:13:41.317Z,5.35
2023-10-12T14:16:11.888Z,4.75
2023-10-12T14:18:39.639Z,3.28
2023-10-12T14:21:11.188Z,2.90
2023-10-12T14:23:45.778Z,3.00
2023-10-12T14:26:19.053Z,3.40
2023-10-12T14:28:54.867Z,3.03
2023-10-12T14:31:22.882Z,3.60
2023-10-12T14:33:55.781Z,3.28
2023-10-12T14:36:25.169Z,2.85
2023-10-12T14:38:56.132Z,3.22
2023-10-12T14:41:23.075Z,3.10
2023-10-12T14:43:50.168Z,3.13
2023-10-12T14:46:20.309Z,2.78
2023-10-12T14:48:53.453Z,3.30
2023-10-12T14:51:22.527Z,3.20
2023-10-12T14:53:51.952Z,3.17
2023-10-12T14:56:29.544Z,2.92
2023-10-12T14:58:57.633Z,2.92
2023-10-12T15:01:29.661Z,2.85
2023-10-12T15:03:57.866Z,3.03
2023-10-12T15:06:24.758Z,3.53
2023-10-12T15:08:54.540Z,3.30
2023-10-12T15:11:21.675Z,3.67
2023-10-12T15:13:50.217Z,3.25
2023-10-12T15:16:17.361Z,3.08
2023-10-12T15:18:44.188Z,2.85
2023-10-12T15:23:44.763Z,2.65
2023-10-12T15:26:14.823Z,2.67
2023-10-12T15:28:41.795Z,2.88
2023-10-12T15:31:10.188Z,2.60
2023-10-12T15:33:38.848Z,3.63
2023-10-12T15:36:08.536Z,2.92
2023-10-12T15:38:35.435Z,3.20
2023-10-12T15:41:02.166Z,3.25
2023-10-12T15:43:30.087Z,3.33
2023-10-12T15:45:57.111Z,3.28
2023-10-12T15:48:28.198Z,2.75
2023-10-12T15:50:55.780Z,2.95
2023-10-12T15:53:24.284Z,2.92
2023-10-12T15:55:51.653Z,2.90
2023-10-12T15:58:18.661Z,2.90
2023-10-12T16:00:46.382Z,3.70
2023-10-12T16:03:15.606Z,4.03
2023-10-12T16:05:43.951Z,3.20
2023-10-12T16:08:15.808Z,2.95
2023-10-12T16:10:50.329Z,3.45
2023-10-12T16:13:17.719Z,3.70
2023-10-12T16:15:44.755Z,3.35
2023-10-12T16:18:13.183Z,3.17
2023-10-12T16:20:40.373Z,4.03
2023-10-12T16:23:07.099Z,3.05
2023-10-12T16:25:33.990Z,3.83
2023-10-12T16:28:00.777Z,3.38
2023-10-12T16:30:31.302Z,3.05
2023-10-12T16:32:58.125Z,3.67
2023-10-12T16:35:25.438Z,3.85
2023-10-12T16:38:02.144Z,2.92
2023-10-12T16:40:31.593Z,3.58
2023-10-12T16:42:58.441Z,3.85
2023-10-12T16:45:26.639Z,3.80
2023-10-12T16:47:53.412Z,3.33
2023-10-12T16:50:20.236Z,3.90
2023-10-12T16:52:50.518Z,3.80
2023-10-12T16:55:18.375Z,3.22
2023-10-12T16:57:49.247Z,3.55
2023-10-12T17:00:19.323Z,3.35
2023-10-12T17:02:47.073Z,3.53
2023-10-12T17:05:15.226Z,3.53
2023-10-12T17:07:46.046Z,3.33
2023-10-12T17:10:32.116Z,3.20
2023-10-12T17:12:58.861Z,3.80
2023-10-12T17:15:26.395Z,4.00
2023-10-12T17:17:54.186Z,3.58
2023-10-12T17:20:21.116Z,4.20
2023-10-12T17:22:47.840Z,3.70
2023-10-12T17:25:14.822Z,3.60
2023-10-12T17:27:42.502Z,3.90
2023-10-12T17:30:12.702Z,3.63
2023-10-12T17:32:42.204Z,3.90
2023-10-12T17:35:15.973Z,4.03
2023-10-12T17:37:43.793Z,3.60
2023-10-12T17:40:12.106Z,3.92
2023-10-12T17:42:39.266Z,4.53
2023-10-12T17:45:11.169Z,3.90
2023-10-12T17:47:39.906Z,3.92
2023-10-12T17:50:16.720Z,4.15
2023-10-12T17:52:47.096Z,3.72
2023-10-12T17:55:18.097Z,3.97
2023-10-12T17:57:46.356Z,4.03
2023-10-12T18:00:14.128Z,4.10
2023-10-12T18:02:42.926Z,4.18
2023-10-12T18:05:12.950Z,3.92
2023-10-12T18:07:41.660Z,3.95
2023-10-12T18:10:09.100Z,4.40
2023-10-12T18:12:37.276Z,4.15
2023-10-12T18:15:04.468Z,4.68
2023-10-12T18:17:32.436Z,4.07
2023-10-12T18:19:59.912Z,5.00
2023-10-12T18:22:28.167Z,3.65
2023-10-12T18:24:56.356Z,3.67
2023-10-12T18:27:23.517Z,3.70
2023-10-12T18:29:50.156Z,4.57
2023-10-12T18:32:23.061Z,3.85
2023-10-12T18:34:52.913Z,4.07
2023-10-12T18:37:19.961Z,4.20
2023-10-12T18:39:47.154Z,4.28
2023-10-12T18:42:13.956Z,4.07
2023-10-12T18:44:40.719Z,4.88
2023-10-12T18:47:07.525Z,4.07
2023-10-12T18:49:34.275Z,4.45
2023-10-12T18:52:01.091Z,4.25
2023-10-12T18:54:27.810Z,4.75
2023-10-12T18:56:54.541Z,6.35
2023-10-12T18:59:21.441Z,4.60
2023-10-12T19:01:48.392Z,6.07
2023-10-12T19:04:16.571Z,5.13
2023-10-12T19:06:45.994Z,5.35
2023-10-12T19:09:14.647Z,5.78
2023-10-12T19:11:41.375Z,4.90
2023-10-12T19:14:08.449Z,5.20
2023-10-12T19:16:37.005Z,4.95
2023-10-12T19:19:03.903Z,4.07
2023-10-12T19:21:30.681Z,4.07
2023-10-12T19:23:57.304Z,4.45
2023-10-12T19:26:23.942Z,4.13
2023-10-12T19:28:50.751Z,3.80
2023-10-12T19:31:18.393Z,3.80
2023-10-12T19:33:45.954Z,4.78
2023-10-12T19:36:13.612Z,4.47
2023-10-12T19:38:41.540Z,4.28
2023-10-12T19:41:09.837Z,5.00
2023-10-12T19:43:41.065Z,4.57
2023-10-12T19:46:11.217Z,4.30
2023-10-12T19:48:39.544Z,4.07
2023-10-12T19:51:15.364Z,4.18
2023-10-12T19:53:43.737Z,4.03
2023-10-12T19:56:17.780Z,3.80
2023-10-12T19:58:49.678Z,2.67
2023-10-12T20:01:21.722Z,3.22
2023-10-12T20:03:52.569Z,3.38
2023-10-12T20:06:20.722Z,2.90
2023-10-12T20:08:49.330Z,4.00
2023-10-12T20:11:17.825Z,3.25
2023-10-12T20:13:51.597Z,2.65
2023-10-12T20:16:21.395Z,2.75
2023-10-12T20:18:48.394Z,2.88
2023-10-12T20:21:17.938Z,3.03
2023-10-12T20:23:46.038Z,2.75
2023-10-12T20:26:14.785Z,3.17
2023-10-12T20:28:41.970Z,2.63
2023-10-12T20:31:11.834Z,3.05
2023-10-12T20:33:40.822Z,3.10
2023-10-12T20:36:09.170Z,2.83
2023-10-12T20:38:35.999Z,2.75
2023-10-12T20:41:05.572Z,2.63
2023-10-12T20:43:35.660Z,2.90
2023-10-12T20:46:10.832Z,2.72
2023-10-12T20:48:38.565Z,3.08
2023-10-12T20:51:06.502Z,2.85
2023-10-12T20:53:37.311Z,2.67
2023-10-12T20:56:09.615Z,3.35
2023-10-12T20:58:44.350Z,3.50
2023-10-12T21:01:28.391Z,2.92
2023-10-12T21:03:55.892Z,3.70
2023-10-12T21:06:28.718Z,3.03
2023-10-12T21:09:02.590Z,2.83
2023-10-12T21:11:32.962Z,3.20
2023-10-12T21:14:05.176Z,3.25
2023-10-12T21:16:33.920Z,4.15
2023-10-12T21:19:14.125Z,3.10
2023-10-12T21:21:40.882Z,3.83
2023-10-12T21:24:13.974Z,3.60
2023-10-12T21:26:40.751Z,2.78
2023-10-12T21:29:12.826Z,3.33
2023-10-12T21:34:12.117Z,3.53
2023-10-12T21:36:41.638Z,3.13
2023-10-12T21:39:16.508Z,3.58
2023-10-12T21:41:44.029Z,3.17
2023-10-12T21:44:11.497Z,3.30
2023-10-12T21:46:40.387Z,4.07
2023-10-12T21:49:08.325Z,4.45
2023-10-12T21:51:36.068Z,3.97
2023-10-12T21:54:08.054Z,3.70
2023-10-12T21:56:36.411Z,3.92
2023-10-12T21:59:04.070Z,3.85
2023-10-12T22:01:35.977Z,4.35
2023-10-12T22:06:34.221Z,3.65
2023-10-12T22:09:01.374Z,4.15
2023-10-12T22:11:30.013Z,5.07
2023-10-12T22:14:17.028Z,5.40
2023-10-12T22:16:53.680Z,5.47
2023-10-12T22:19:20.896Z,5.18
2023-10-12T22:21:49.456Z,5.15
2023-10-12T22:24:17.465Z,5.07
2023-10-12T22:26:44.669Z,4.88
2023-10-12T22:29:11.914Z,5.10
2023-10-12T22:31:39.303Z,5.00
2023-10-12T22:34:09.558Z,4.63
2023-10-12T22:36:37.412Z,4.93
2023-10-12T22:39:16.790Z,4.25
2023-10-12T22:41:50.451Z,5.07
2023-10-12T22:44:17.890Z,5.60
2023-10-12T22:46:47.938Z,5.68
2023-10-12T22:49:15.590Z,6.10
2023-10-12T22:51:42.351Z,6.38
2023-10-12T22:54:09.050Z,6.47
2023-10-12T22:56:36.022Z,6.88
2023-10-12T22:59:02.900Z,8.85
2023-10-12T23:01:29.999Z,8.20
2023-10-12T23:03:56.854Z,9.20
2023-10-12T23:06:23.710Z,8.85
2023-10-12T23:08:50.601Z,8.30
2023-10-12T23:11:22.318Z,8.50
2023-10-12T23:13:49.800Z,8.93
2023-10-12T23:16:27.602Z,9.23
2023-10-12T23:18:56.937Z,8.85
2023-10-12T23:21:31.095Z,7.88
2023-10-12T23:23:59.081Z,6.60
2023-10-12T23:26:31.938Z,7.35
2023-10-12T23:28:59.092Z,7.10
2023-10-12T23:31:28.246Z,7.57
2023-10-12T23:33:58.260Z,6.68
2023-10-12T23:36:29.037Z,6.43
2023-10-12T23:39:14.530Z,6.32
2023-10-12T23:41:46.453Z,6.32
2023-10-12T23:44:25.519Z,6.82
2023-10-12T23:46:58.447Z,6.85
2023-10-12T23:49:37.262Z,7.10
2023-10-12T23:52:10.478Z,6.40
2023-10-12T23:54:38.169Z,5.45
2023-10-12T23:57:11.445Z,4.88
2023-10-12T23:59:38.150Z,5.20
